Time;durP1;ratioP1;P1;durP2;ratioP2;P2;SDS_P1;SDS_P2;PMS_P1;PMS_P2;Temp;Humidity;BMP_temperature;BMP_pressure;BME280_temperature;BME280_humidity;BME280_pressure;Samples;Min_cycle;Max_cycle;Signal;HPM_P1;HPM_P2
2021/06/01 00:01:58;;;;;;;9.68;8.70;;;;;;;;;;5094396;28;20024;-71
2021/06/01 00:04:24;;;;;;;10.20;9.05;;;;;;;;;;5093885;28;20028;-71
2021/06/01 00:06:50;;;;;;;10.10;9.05;;;;;;;;;;5093880;28;20373;-70
2021/06/01 00:09:17;;;;;;;9.27;8.10;;;;;;;;;;5093947;28;20028;-72
2021/06/01 00:11:43;;;;;;;10.50;7.97;;;;;;;;;;5094008;28;20024;-70
2021/06/01 00:14:09;;;;;;;12.88;8.75;;;;;;;;;;5093961;28;20020;-70
2021/06/01 00:16:35;;;;;;;9.45;8.45;;;;;;;;;;5093618;28;20028;-71
2021/06/01 00:19:01;;;;;;;9.23;7.97;;;;;;;;;;5093797;28;20093;-70
2021/06/01 00:21:27;;;;;;;9.85;8.38;;;;;;;;;;5093861;28;20043;-70
2021/06/01 00:23:54;;;;;;;9.63;8.63;;;;;;;;;;5094012;28;20024;-70
2021/06/01 00:26:20;;;;;;;8.48;7.57;;;;;;;;;;5093252;28;20020;-71
2021/06/01 00:28:46;;;;;;;9.80;8.82;;;;;;;;;;5094059;28;20028;-71
2021/06/01 00:31:12;;;;;;;8.95;7.68;;;;;;;;;;5094184;28;20028;-71
2021/06/01 00:33:38;;;;;;;11.50;9.07;;;;;;;;;;5093839;28;20016;-70
2021/06/01 00:36:05;;;;;;;10.00;8.85;;;;;;;;;;5093485;28;20023;-71
2021/06/01 00:38:31;;;;;;;8.30;7.50;;;;;;;;;;5093274;28;20035;-72
2021/06/01 00:40:57;;;;;;;8.65;7.53;;;;;;;;;;5093466;28;20127;-71
2021/06/01 00:43:24;;;;;;;12.40;7.38;;;;;;;;;;5093605;28;20465;-71
2021/06/01 00:45:50;;;;;;;11.32;9.38;;;;;;;;;;5093920;28;20389;-70
2021/06/01 00:48:16;;;;;;;11.05;8.63;;;;;;;;;;5093440;28;20473;-71
2021/06/01 00:50:42;;;;;;;8.73;7.93;;;;;;;;;;5093696;28;20048;-71
2021/06/01 00:53:08;;;;;;;8.73;7.93;;;;;;;;;;5093533;28;20021;-70
2021/06/01 00:55:35;;;;;;;7.57;6.72;;;;;;;;;;5093329;28;20419;-71
2021/06/01 00:58:01;;;;;;;8.43;7.60;;;;;;;;;;5093432;28;20032;-71
2021/06/01 01:03:13;;;;;;;10.15;8.00;;;;;;;;;;5092409;28;20067;-71
2021/06/01 01:05:40;;;;;;;8.63;7.13;;;;;;;;;;5093355;28;20382;-71
2021/06/01 01:08:44;;;;;;;9.77;8.73;;;;;;;;;;5093309;28;20050;-70
2021/06/01 01:11:19;;;;;;;8.27;7.57;;;;;;;;;;5092568;28;20139;-70
2021/06/01 01:13:49;;;;;;;10.18;7.80;;;;;;;;;;5093223;28;20453;-70
2021/06/01 01:16:15;;;;;;;9.02;8.13;;;;;;;;;;5092698;28;20034;-76
2021/06/01 01:18:42;;;;;;;10.82;7.45;;;;;;;;;;5093324;28;20032;-70
2021/06/01 01:21:14;;;;;;;10.90;7.95;;;;;;;;;;5093086;28;20032;-71
2021/06/01 01:23:40;;;;;;;10.48;7.60;;;;;;;;;;5093556;28;20100;-70
2021/06/01 01:26:12;;;;;;;8.68;7.88;;;;;;;;;;5093218;28;20077;-70
2021/06/01 01:28:58;;;;;;;9.00;8.10;;;;;;;;;;5093071;28;20035;-70
2021/06/01 01:31:26;;;;;;;10.45;7.43;;;;;;;;;;5093227;28;20024;-71
2021/06/01 01:33:52;;;;;;;8.75;7.68;;;;;;;;;;5097151;28;20020;-71
2021/06/01 01:36:18;;;;;;;10.10;7.70;;;;;;;;;;5096719;28;20428;-71
2021/06/01 01:38:44;;;;;;;9.55;8.13;;;;;;;;;;5096949;28;20519;-71
2021/06/01 01:41:11;;;;;;;7.95;7.13;;;;;;;;;;5096677;28;20040;-71
2021/06/01 01:43:38;;;;;;;9.85;7.13;;;;;;;;;;5096577;28;20462;-71
2021/06/01 01:46:53;;;;;;;7.72;6.97;;;;;;;;;;5096842;28;20428;-71
2021/06/01 01:49:05;;;;;;;8.55;6.82;;;;;;;;;;5096051;28;20440;-71
2021/06/01 01:51:32;;;;;;;7.75;6.88;;;;;;;;;;5097026;28;20035;-71
2021/06/01 01:53:58;;;;;;;8.68;7.78;;;;;;;;;;5096313;28;20024;-71
2021/06/01 01:56:28;;;;;;;9.00;7.55;;;;;;;;;;5096442;28;20078;-70
2021/06/01 01:58:54;;;;;;;9.85;6.85;;;;;;;;;;5096783;28;20035;-70
2021/06/01 02:01:20;;;;;;;6.93;6.32;;;;;;;;;;5096603;28;20106;-70
2021/06/01 02:03:46;;;;;;;7.35;6.63;;;;;;;;;;5096346;28;20162;-70
2021/06/01 02:06:13;;;;;;;11.55;6.50;;;;;;;;;;5096241;28;20020;-70
2021/06/01 02:08:39;;;;;;;7.13;6.43;;;;;;;;;;5096110;28;20020;-71
2021/06/01 02:11:05;;;;;;;7.05;6.35;;;;;;;;;;5096367;28;20034;-70
2021/06/01 02:13:32;;;;;;;9.63;6.95;;;;;;;;;;5096377;28;20061;-71
2021/06/01 02:15:58;;;;;;;8.73;6.88;;;;;;;;;;5096279;28;20035;-71
2021/06/01 02:18:24;;;;;;;8.40;7.60;;;;;;;;;;5096145;28;20461;-71
2021/06/01 02:20:54;;;;;;;11.85;6.68;;;;;;;;;;5095916;28;20452;-71
2021/06/01 02:26:14;;;;;;;8.07;6.82;;;;;;;;;;5095150;28;20036;-70
2021/06/01 02:28:42;;;;;;;9.88;6.65;;;;;;;;;;5096445;28;20089;-70
2021/06/01 02:31:12;;;;;;;7.05;6.03;;;;;;;;;;5096050;28;20020;-70
2021/06/01 02:33:38;;;;;;;8.65;7.30;;;;;;;;;;5095745;28;20021;-72
2021/06/01 02:36:05;;;;;;;7.43;6.68;;;;;;;;;;5095878;28;20465;-71
2021/06/01 02:38:32;;;;;;;7.93;7.13;;;;;;;;;;5095609;28;20035;-71
2021/06/01 02:40:59;;;;;;;7.63;6.60;;;;;;;;;;5096189;28;20035;-71
2021/06/01 02:43:25;;;;;;;8.60;6.95;;;;;;;;;;5095286;28;20161;-71
2021/06/01 02:45:51;;;;;;;9.75;8.23;;;;;;;;;;5095485;28;20347;-71
2021/06/01 02:48:18;;;;;;;10.15;7.60;;;;;;;;;;5095297;28;20445;-73
2021/06/01 02:50:45;;;;;;;7.18;6.47;;;;;;;;;;5095421;28;20056;-71
2021/06/01 02:53:11;;;;;;;7.80;7.05;;;;;;;;;;5096009;28;20077;-71
2021/06/01 02:55:37;;;;;;;13.90;7.40;;;;;;;;;;5095690;28;20028;-71
2021/06/01 02:58:06;;;;;;;7.93;7.00;;;;;;;;;;5095561;28;20392;-71
2021/06/01 03:00:34;;;;;;;9.63;7.60;;;;;;;;;;5094988;28;20119;-71
2021/06/01 03:03:00;;;;;;;8.05;7.20;;;;;;;;;;5095291;28;20369;-71
2021/06/01 03:05:30;;;;;;;7.93;6.95;;;;;;;;;;5095810;28;20027;-71
2021/06/01 03:07:56;;;;;;;9.45;7.82;;;;;;;;;;5095386;28;20020;-70
2021/06/01 03:10:24;;;;;;;7.57;6.80;;;;;;;;;;5094986;28;20020;-71
2021/06/01 03:12:56;;;;;;;12.68;6.43;;;;;;;;;;5095098;28;20493;-71
2021/06/01 03:15:23;;;;;;;7.68;6.88;;;;;;;;;;5094930;28;20374;-72
2021/06/01 03:17:49;;;;;;;9.38;6.50;;;;;;;;;;5095174;28;20052;-71
2021/06/01 03:20:15;;;;;;;8.68;7.75;;;;;;;;;;5094857;28;20042;-85
2021/06/01 03:22:41;;;;;;;7.55;6.53;;;;;;;;;;5094990;28;20108;-71
2021/06/01 03:25:08;;;;;;;8.05;7.20;;;;;;;;;;5094931;28;20024;-71
2021/06/01 03:27:34;;;;;;;9.05;6.88;;;;;;;;;;5095003;28;20028;-71
2021/06/01 03:30:00;;;;;;;9.90;7.53;;;;;;;;;;5094773;28;20066;-71
2021/06/01 03:32:26;;;;;;;8.45;7.65;;;;;;;;;;5094334;28;20032;-71
2021/06/01 03:34:52;;;;;;;10.68;7.70;;;;;;;;;;5094746;28;20031;-71
2021/06/01 03:37:18;;;;;;;7.47;6.78;;;;;;;;;;5094852;28;20482;-71
2021/06/01 03:39:44;;;;;;;7.75;6.93;;;;;;;;;;5094549;28;20029;-71
2021/06/01 03:42:12;;;;;;;7.85;6.93;;;;;;;;;;5094579;28;20056;-71
2021/06/01 03:44:40;;;;;;;8.10;7.22;;;;;;;;;;5093979;28;20067;-72
2021/06/01 03:47:06;;;;;;;9.25;6.65;;;;;;;;;;5094176;28;20031;-71
2021/06/01 03:49:33;;;;;;;11.68;6.97;;;;;;;;;;5094259;28;20125;-74
2021/06/01 03:51:59;;;;;;;8.10;6.70;;;;;;;;;;5094852;28;20024;-74
2021/06/01 03:54:26;;;;;;;9.77;7.40;;;;;;;;;;5093254;28;20408;-74
2021/06/01 03:56:52;;;;;;;9.35;7.15;;;;;;;;;;5094506;28;20020;-74
2021/06/01 03:59:18;;;;;;;7.80;7.00;;;;;;;;;;5094117;28;20032;-73
2021/06/01 04:01:44;;;;;;;8.57;7.15;;;;;;;;;;5094045;28;20469;-73
2021/06/01 04:04:10;;;;;;;7.40;6.70;;;;;;;;;;5094346;28;20046;-74
2021/06/01 04:06:36;;;;;;;7.95;6.68;;;;;;;;;;5094009;28;20027;-74
2021/06/01 04:09:02;;;;;;;8.40;7.40;;;;;;;;;;5094446;28;20024;-74
2021/06/01 04:11:28;;;;;;;13.77;8.38;;;;;;;;;;5094239;28;20027;-74
2021/06/01 04:13:55;;;;;;;9.48;7.95;;;;;;;;;;5093702;28;20441;-73
2021/06/01 04:16:21;;;;;;;8.35;7.13;;;;;;;;;;5093657;28;20081;-73
2021/06/01 04:18:47;;;;;;;8.30;6.90;;;;;;;;;;5094291;28;20036;-71
2021/06/01 04:21:13;;;;;;;9.25;7.60;;;;;;;;;;5093958;28;20548;-74
2021/06/01 04:23:39;;;;;;;9.13;7.60;;;;;;;;;;5094419;28;20024;-74
2021/06/01 04:26:05;;;;;;;7.25;6.57;;;;;;;;;;5093925;28;20024;-74
2021/06/01 04:28:31;;;;;;;8.82;7.20;;;;;;;;;;5093740;28;20038;-73
2021/06/01 04:30:57;;;;;;;10.30;6.20;;;;;;;;;;5093597;28;20420;-74
2021/06/01 04:33:23;;;;;;;14.98;7.45;;;;;;;;;;5092760;28;20052;-75
2021/06/01 04:35:49;;;;;;;9.18;6.65;;;;;;;;;;5093354;28;20466;-75
2021/06/01 04:38:15;;;;;;;7.80;6.80;;;;;;;;;;5093002;28;20111;-75
2021/06/01 04:40:41;;;;;;;7.90;5.90;;;;;;;;;;5107208;28;20081;-75
2021/06/01 04:43:08;;;;;;;9.88;5.72;;;;;;;;;;5113193;28;20031;-77
2021/06/01 04:45:34;;;;;;;7.25;6.50;;;;;;;;;;5113626;28;20520;-76
2021/06/01 04:48:00;;;;;;;11.52;6.45;;;;;;;;;;5113852;28;20032;-75
2021/06/01 04:50:26;;;;;;;7.97;6.07;;;;;;;;;;5113399;28;20074;-75
2021/06/01 04:52:52;;;;;;;6.97;6.30;;;;;;;;;;5113454;28;20024;-74
2021/06/01 04:55:18;;;;;;;10.38;6.15;;;;;;;;;;5114003;28;20019;-72
2021/06/01 04:57:44;;;;;;;11.05;6.68;;;;;;;;;;5110963;28;20103;-74
2021/06/01 05:00:11;;;;;;;8.75;5.82;;;;;;;;;;5113374;28;20032;-72
2021/06/01 05:02:37;;;;;;;5.95;5.43;;;;;;;;;;5113154;28;20027;-73
2021/06/01 05:05:04;;;;;;;7.68;5.93;;;;;;;;;;5110921;28;20032;-72
2021/06/01 05:07:30;;;;;;;7.85;5.78;;;;;;;;;;5117385;28;20028;-72
2021/06/01 05:10:01;;;;;;;13.27;6.47;;;;;;;;;;5117504;28;20051;-73
2021/06/01 05:12:27;;;;;;;31.85;7.93;;;;;;;;;;5117203;28;20027;-72
2021/06/01 05:14:53;;;;;;;9.18;6.00;;;;;;;;;;5117324;28;20020;-72
2021/06/01 05:17:19;;;;;;;17.00;7.80;;;;;;;;;;5117510;28;20027;-79
2021/06/01 05:19:45;;;;;;;8.90;6.28;;;;;;;;;;5117663;28;20381;-78
2021/06/01 05:22:12;;;;;;;15.13;6.32;;;;;;;;;;5115074;28;20028;-78
2021/06/01 05:24:38;;;;;;;12.63;6.28;;;;;;;;;;5117315;28;20030;-79
2021/06/01 05:27:05;;;;;;;8.13;6.30;;;;;;;;;;5117224;28;20019;-78
2021/06/01 05:29:33;;;;;;;15.45;6.18;;;;;;;;;;5116699;28;20133;-80
2021/06/01 05:32:08;;;;;;;7.07;6.20;;;;;;;;;;5117424;28;20106;-79
2021/06/01 05:34:37;;;;;;;7.63;6.22;;;;;;;;;;5117303;28;20019;-78
2021/06/01 05:37:03;;;;;;;8.88;6.60;;;;;;;;;;5117442;28;20084;-79
2021/06/01 05:39:29;;;;;;;11.45;6.15;;;;;;;;;;5116540;28;20084;-77
2021/06/01 05:41:55;;;;;;;9.10;6.25;;;;;;;;;;5116991;28;20031;-76
2021/06/01 05:44:21;;;;;;;9.52;5.80;;;;;;;;;;5117103;28;20102;-81
2021/06/01 05:46:47;;;;;;;16.15;7.45;;;;;;;;;;5117095;28;20031;-78
2021/06/01 05:49:13;;;;;;;8.27;5.57;;;;;;;;;;5117452;28;20067;-77
2021/06/01 05:51:39;;;;;;;9.32;5.93;;;;;;;;;;5117333;28;20034;-78
2021/06/01 05:54:06;;;;;;;10.00;6.57;;;;;;;;;;5116586;28;20020;-78
2021/06/01 05:56:32;;;;;;;8.85;6.03;;;;;;;;;;5116502;28;20065;-79
2021/06/01 05:58:58;;;;;;;10.98;5.47;;;;;;;;;;5117261;28;20031;-73
2021/06/01 06:07:31;;;;;;;9.00;5.65;;;;;;;;;;5116382;28;20517;-77
2021/06/01 06:16:25;;;;;;;11.00;5.10;;;;;;;;;;5116365;28;20034;-74
2021/06/01 06:18:52;;;;;;;6.05;4.82;;;;;;;;;;5115979;28;20046;-74
2021/06/01 06:21:18;;;;;;;6.38;5.40;;;;;;;;;;5116576;28;20458;-75
2021/06/01 06:23:45;;;;;;;5.60;5.10;;;;;;;;;;5116139;28;20058;-80
2021/06/01 06:26:11;;;;;;;9.02;8.15;;;;;;;;;;5116238;28;20033;-79
2021/06/01 06:28:37;;;;;;;7.53;6.75;;;;;;;;;;5116103;28;20027;-78
2021/06/01 06:31:03;;;;;;;7.88;6.28;;;;;;;;;;5116858;28;20091;-78
2021/06/01 06:33:29;;;;;;;10.93;5.97;;;;;;;;;;5116358;28;20023;-80
2021/06/01 06:35:55;;;;;;;72.57;20.15;;;;;;;;;;5116322;28;20019;-78
2021/06/01 06:38:21;;;;;;;82.15;24.05;;;;;;;;;;5115989;28;20050;-79
2021/06/01 06:41:18;;;;;;;61.95;20.55;;;;;;;;;;5116844;28;20070;-78
2021/06/01 06:43:37;;;;;;;60.97;18.38;;;;;;;;;;5115508;28;20035;-78
2021/06/01 06:46:07;;;;;;;38.45;15.60;;;;;;;;;;5115955;28;20031;-76
2021/06/01 06:48:34;;;;;;;26.15;10.82;;;;;;;;;;5115841;28;20058;-75
2021/06/01 06:51:01;;;;;;;25.42;10.07;;;;;;;;;;5115505;28;20104;-75
2021/06/01 06:53:27;;;;;;;26.42;10.50;;;;;;;;;;5116218;28;20477;-74
2021/06/01 06:55:54;;;;;;;20.88;9.45;;;;;;;;;;5116140;28;20161;-74
2021/06/01 06:58:20;;;;;;;24.00;10.63;;;;;;;;;;5115533;28;20022;-75
2021/06/01 07:00:46;;;;;;;43.83;13.63;;;;;;;;;;5115892;28;20469;-74
2021/06/01 07:03:12;;;;;;;22.90;10.60;;;;;;;;;;5115788;28;20031;-72
2021/06/01 07:05:38;;;;;;;33.22;12.32;;;;;;;;;;5115948;28;20138;-72
2021/06/01 07:08:04;;;;;;;24.10;12.18;;;;;;;;;;5116018;28;20027;-71
2021/06/01 07:10:31;;;;;;;32.33;12.05;;;;;;;;;;5116165;28;20028;-71
2021/06/01 07:12:57;;;;;;;22.67;10.05;;;;;;;;;;5116493;28;20023;-71
2021/06/01 07:15:32;;;;;;;19.42;8.50;;;;;;;;;;5116513;28;20069;-74
2021/06/01 07:18:00;;;;;;;22.17;10.35;;;;;;;;;;5116541;28;20024;-72
2021/06/01 07:20:30;;;;;;;32.92;10.38;;;;;;;;;;5116102;28;20036;-72
2021/06/01 07:22:56;;;;;;;20.75;10.23;;;;;;;;;;5116198;28;20076;-72
2021/06/01 07:25:22;;;;;;;29.63;10.65;;;;;;;;;;5115770;28;20031;-75
2021/06/01 07:27:48;;;;;;;20.20;9.75;;;;;;;;;;5116341;28;20024;-74
2021/06/01 07:30:16;;;;;;;27.55;9.60;;;;;;;;;;5114630;28;20464;-74
2021/06/01 07:32:43;;;;;;;25.20;9.93;;;;;;;;;;5115917;28;20105;-77
2021/06/01 07:35:09;;;;;;;21.83;9.40;;;;;;;;;;5115864;28;20381;-74
2021/06/01 07:37:35;;;;;;;20.17;9.55;;;;;;;;;;5114957;28;20028;-71
2021/06/01 07:40:01;;;;;;;19.40;7.72;;;;;;;;;;5115363;28;20035;-73
2021/06/01 07:42:27;;;;;;;17.40;8.10;;;;;;;;;;5115027;28;20107;-71
2021/06/01 07:44:53;;;;;;;14.82;7.97;;;;;;;;;;5115242;28;20024;-71
2021/06/01 07:47:19;;;;;;;13.57;8.05;;;;;;;;;;5115182;28;20439;-71
2021/06/01 07:49:46;;;;;;;14.57;7.05;;;;;;;;;;5115014;28;20074;-71
2021/06/01 07:52:12;;;;;;;17.92;8.23;;;;;;;;;;5114994;28;20379;-76
2021/06/01 07:54:38;;;;;;;13.85;7.20;;;;;;;;;;5114374;28;20027;-75
2021/06/01 07:57:04;;;;;;;12.27;7.00;;;;;;;;;;5115279;28;20419;-73
2021/06/01 07:59:31;;;;;;;23.58;7.10;;;;;;;;;;5114832;28;20547;-77
2021/06/01 08:01:57;;;;;;;15.02;6.88;;;;;;;;;;5114813;28;20028;-73
2021/06/01 08:04:23;;;;;;;25.17;6.97;;;;;;;;;;5114409;28;20034;-75
2021/06/01 08:06:49;;;;;;;11.75;5.70;;;;;;;;;;5114500;28;20483;-75
2021/06/01 08:09:15;;;;;;;11.95;6.57;;;;;;;;;;5115118;28;20027;-75
2021/06/01 08:11:41;;;;;;;10.25;7.32;;;;;;;;;;5114498;28;20020;-77
2021/06/01 08:14:07;;;;;;;8.18;5.43;;;;;;;;;;5115309;28;20437;-75
2021/06/01 08:16:33;;;;;;;10.38;6.22;;;;;;;;;;5114343;28;20020;-76
2021/06/01 08:19:12;;;;;;;8.23;5.85;;;;;;;;;;5115155;28;20019;-74
2021/06/01 08:21:51;;;;;;;11.00;5.88;;;;;;;;;;5114565;28;20086;-74
2021/06/01 08:24:17;;;;;;;11.63;4.90;;;;;;;;;;5114427;28;20028;-73
2021/06/01 08:26:43;;;;;;;17.50;5.70;;;;;;;;;;5114405;28;20023;-73
2021/06/01 08:29:09;;;;;;;10.93;5.85;;;;;;;;;;5114314;28;20055;-72
2021/06/01 08:31:35;;;;;;;10.93;5.38;;;;;;;;;;5114607;28;20028;-72
2021/06/01 08:34:01;;;;;;;8.57;5.70;;;;;;;;;;5114702;28;20114;-73
2021/06/01 08:36:28;;;;;;;14.18;6.97;;;;;;;;;;5113987;28;20469;-73
2021/06/01 08:38:54;;;;;;;7.88;5.05;;;;;;;;;;5114111;28;20024;-75
2021/06/01 08:41:20;;;;;;;8.93;4.72;;;;;;;;;;5113343;28;20035;-73
2021/06/01 08:43:47;;;;;;;11.27;4.57;;;;;;;;;;5114030;28;20066;-74
2021/06/01 08:46:13;;;;;;;7.78;5.15;;;;;;;;;;5114193;28;20023;-73
2021/06/01 08:48:40;;;;;;;12.00;4.53;;;;;;;;;;5113631;28;20062;-73
2021/06/01 08:51:08;;;;;;;17.92;5.85;;;;;;;;;;5113976;28;20059;-73
2021/06/01 08:53:34;;;;;;;6.68;4.60;;;;;;;;;;5114004;28;20024;-72
2021/06/01 08:56:00;;;;;;;11.73;5.72;;;;;;;;;;5114068;28;20106;-70
2021/06/01 08:58:26;;;;;;;7.45;4.97;;;;;;;;;;5113358;28;20024;-74
2021/06/01 09:00:53;;;;;;;13.85;5.30;;;;;;;;;;5114551;28;20027;-74
2021/06/01 09:03:21;;;;;;;8.55;4.10;;;;;;;;;;5113478;28;20066;-77
2021/06/01 09:06:19;;;;;;;6.45;4.03;;;;;;;;;;5111911;28;20019;-75
2021/06/01 09:11:58;;;;;;;5.85;4.40;;;;;;;;;;5114587;28;20411;-78
2021/06/01 09:14:51;;;;;;;5.28;3.47;;;;;;;;;;5112912;28;20393;-77
2021/06/01 09:22:58;;;;;;;8.68;3.85;;;;;;;;;;5101190;28;20062;-76
2021/06/01 09:28:13;;;;;;;7.55;3.83;;;;;;;;;;5112528;28;20492;-73
2021/06/01 09:30:43;;;;;;;5.47;3.55;;;;;;;;;;5113415;28;20030;-75
2021/06/01 09:33:21;;;;;;;7.03;3.88;;;;;;;;;;5113967;28;20028;-75
2021/06/01 09:35:52;;;;;;;8.35;3.90;;;;;;;;;;5113561;28;20019;-74
2021/06/01 09:38:18;;;;;;;;;;;;;;;;;;5113526;28;20031;-77
2021/06/01 09:40:45;;;;;;;10.00;4.18;;;;;;;;;;5113418;28;19911;-76
2021/06/01 09:43:13;;;;;;;6.82;4.25;;;;;;;;;;5114068;28;20028;-74
2021/06/01 09:45:39;;;;;;;8.85;3.38;;;;;;;;;;5113365;28;20480;-74
2021/06/01 09:48:07;;;;;;;6.57;3.60;;;;;;;;;;5113326;28;20430;-74
2021/06/01 09:50:45;;;;;;;7.88;3.97;;;;;;;;;;5113760;28;20062;-74
2021/06/01 09:53:17;;;;;;;9.50;4.05;;;;;;;;;;5115799;28;20092;-77
2021/06/01 09:55:47;;;;;;;3.47;3.17;;;;;;;;;;5117952;28;20019;-75
2021/06/01 09:58:15;;;;;;;6.20;4.10;;;;;;;;;;5117135;28;20020;-74
2021/06/01 10:00:42;;;;;;;9.93;4.13;;;;;;;;;;5117104;28;20114;-74
2021/06/01 10:03:13;;;;;;;8.32;3.42;;;;;;;;;;5117070;28;20020;-76
2021/06/01 10:05:40;;;;;;;3.80;3.28;;;;;;;;;;5117244;28;20024;-74
2021/06/01 10:08:11;;;;;;;3.80;3.17;;;;;;;;;;5116827;28;20081;-74
2021/06/01 10:10:37;;;;;;;3.63;2.67;;;;;;;;;;5116862;28;20062;-74
2021/06/01 10:13:04;;;;;;;3.33;2.83;;;;;;;;;;5117103;28;20543;-74
2021/06/01 10:15:30;;;;;;;18.20;3.05;;;;;;;;;;5116758;28;20054;-76
2021/06/01 10:17:56;;;;;;;4.15;3.63;;;;;;;;;;5116488;28;20027;-75
2021/06/01 10:20:23;;;;;;;6.78;3.35;;;;;;;;;;5116295;28;20389;-74
2021/06/01 10:22:49;;;;;;;14.98;3.47;;;;;;;;;;5116472;28;20036;-75
2021/06/01 10:25:16;;;;;;;3.60;2.60;;;;;;;;;;5116768;28;20411;-74
2021/06/01 10:27:43;;;;;;;5.47;2.92;;;;;;;;;;5116947;28;20023;-75
2021/06/01 10:30:09;;;;;;;4.40;3.80;;;;;;;;;;5116219;28;20038;-75
2021/06/01 10:32:36;;;;;;;8.27;3.30;;;;;;;;;;5115886;28;20061;-74
2021/06/01 10:35:03;;;;;;;3.85;3.45;;;;;;;;;;5116376;28;20024;-74
2021/06/01 10:44:06;;;;;;;;;;;;;;;;;;;;;
2021/06/01 10:49:58;;;;;;;8.55;3.30;;;;;;;;;;5115211;28;20036;-75
2021/06/01 10:52:04;;;;;;;6.18;3.35;;;;;;;;;;5103737;28;20027;-75
2021/06/01 10:54:51;;;;;;;5.00;3.53;;;;;;;;;;5115890;28;20487;-76
2021/06/01 10:57:17;;;;;;;8.68;3.53;;;;;;;;;;5115955;28;20072;-77
2021/06/01 11:00:10;;;;;;;6.95;3.22;;;;;;;;;;5115518;28;20118;-76
2021/06/01 11:02:36;;;;;;;4.40;3.60;;;;;;;;;;5115790;28;20020;-81
2021/06/01 11:05:13;;;;;;;7.07;3.55;;;;;;;;;;5116412;28;20485;-81
2021/06/01 11:07:55;;;;;;;4.35;3.47;;;;;;;;;;5116523;28;20019;-80
2021/06/01 11:10:41;;;;;;;3.30;3.00;;;;;;;;;;5116032;28;20373;-80
2021/06/01 11:13:08;;;;;;;4.10;3.70;;;;;;;;;;5115197;28;20027;-80
2021/06/01 11:15:35;;;;;;;4.93;4.00;;;;;;;;;;5115679;28;20023;-78
2021/06/01 11:18:17;;;;;;;5.15;3.30;;;;;;;;;;5115955;28;20031;-84
2021/06/01 11:21:05;;;;;;;4.05;3.35;;;;;;;;;;5115798;28;20492;-84
2021/06/01 11:23:45;;;;;;;7.82;4.32;;;;;;;;;;5115160;28;20020;-82
2021/06/01 11:32:48;;;;;;;7.97;3.58;;;;;;;;;;5114717;28;20039;-79
2021/06/01 11:34:37;;;;;;;6.22;3.35;;;;;;;;;;5110385;28;20071;-81
2021/06/01 11:37:03;;;;;;;5.60;3.88;;;;;;;;;;5102375;28;20020;-80
2021/06/01 11:39:55;;;;;;;12.65;3.75;;;;;;;;;;5104142;28;20053;-80
2021/06/01 11:45:03;;;;;;;6.28;3.38;;;;;;;;;;5103978;28;20064;-79
2021/06/01 11:47:41;;;;;;;4.85;3.88;;;;;;;;;;5104271;28;20024;-77
2021/06/01 11:52:57;;;;;;;5.60;3.80;;;;;;;;;;5101178;28;20024;-80
2021/06/01 11:55:23;;;;;;;6.45;3.65;;;;;;;;;;5104338;28;20026;-78
2021/06/01 12:03:22;;;;;;;6.97;3.53;;;;;;;;;;5102606;28;20020;-77
2021/06/01 12:11:33;;;;;;;3.50;3.20;;;;;;;;;;5103749;28;20035;-77
2021/06/01 12:14:13;;;;;;;4.13;3.10;;;;;;;;;;5102934;28;20030;-77
2021/06/01 12:19:25;;;;;;;7.55;3.75;;;;;;;;;;5103786;28;20024;-80
2021/06/01 12:21:51;;;;;;;3.53;3.20;;;;;;;;;;5104438;28;20019;-77
2021/06/01 12:24:23;;;;;;;9.27;3.55;;;;;;;;;;5102707;28;20496;-79
2021/06/01 12:32:26;;;;;;;16.77;3.30;;;;;;;;;;5103218;28;20129;-81
2021/06/01 12:43:37;;;;;;;4.60;3.30;;;;;;;;;;5103216;28;20019;-78
2021/06/01 12:46:13;;;;;;;6.72;3.10;;;;;;;;;;5103154;28;20028;-76
2021/06/01 13:19:49;;;;;;;3.90;3.33;;;;;;;;;;5102171;28;20040;-77
2021/06/01 13:22:44;;;;;;;4.65;3.42;;;;;;;;;;5102768;28;20020;-81
2021/06/01 13:31:05;;;;;;;4.75;3.22;;;;;;;;;;5106478;28;20024;-78
2021/06/01 13:36:28;;;;;;;6.95;3.72;;;;;;;;;;5107185;28;20158;-77
2021/06/01 13:36:57;;;;;;;18.35;3.47;;;;;;;;;;5106420;28;20019;-78
2021/06/01 13:39:24;;;;;;;8.02;2.97;;;;;;;;;;5107302;28;20458;-77
2021/06/01 13:47:24;;;;;;;3.58;3.28;;;;;;;;;;5107740;28;20032;-81
2021/06/01 13:49:55;;;;;;;5.50;3.10;;;;;;;;;;5106781;28;20058;-82
2021/06/01 13:52:37;;;;;;;4.88;3.60;;;;;;;;;;5110805;28;20116;-81
2021/06/01 13:55:08;;;;;;;4.38;2.92;;;;;;;;;;5107490;28;20055;-80
2021/06/01 13:57:48;;;;;;;3.33;2.97;;;;;;;;;;5103579;28;20384;-82
2021/06/01 14:19:54;;;;;;;4.45;2.65;;;;;;;;;;5107101;28;20066;-75
2021/06/01 14:30:57;;;;;;;6.60;2.72;;;;;;;;;;5107061;28;20080;-74
2021/06/01 15:04:26;;;;;;;3.92;3.50;;;;;;;;;;5095537;28;20036;-82
2021/06/01 15:24:12;;;;;;;10.68;3.70;;;;;;;;;;5115398;28;20031;-79
2021/06/01 15:29:18;;;;;;;13.35;4.90;;;;;;;;;;5116204;28;20032;-84
2021/06/01 15:31:43;;;;;;;6.03;4.63;;;;;;;;;;5114794;28;20067;-79
2021/06/01 15:48:15;;;;;;;4.93;3.97;;;;;;;;;;5114905;28;20036;-82
2021/06/01 15:53:43;;;;;;;7.53;5.43;;;;;;;;;;5113783;28;20054;-79
2021/06/01 16:21:34;;;;;;;8.77;5.07;;;;;;;;;;5113575;28;20028;-76
2021/06/01 16:29:56;;;;;;;6.13;5.43;;;;;;;;;;5114367;28;20023;-77
2021/06/01 17:05:36;;;;;;;15.52;5.97;;;;;;;;;;5112987;28;20034;-80
2021/06/01 17:11:03;;;;;;;7.97;5.18;;;;;;;;;;5113825;28;20032;-79
2021/06/01 17:13:32;;;;;;;14.90;5.43;;;;;;;;;;5114316;28;20053;-79
2021/06/01 17:15:58;;;;;;;5.85;5.15;;;;;;;;;;5113709;28;20415;-76
2021/06/01 17:18:39;;;;;;;6.43;4.97;;;;;;;;;;5114407;28;20085;-80
2021/06/01 17:21:31;;;;;;;9.32;5.15;;;;;;;;;;5114616;28;20131;-81
2021/06/01 17:34:58;;;;;;;13.23;6.38;;;;;;;;;;5112523;28;20529;-76
2021/06/01 17:37:24;;;;;;;6.97;5.57;;;;;;;;;;5112864;28;20020;-79
2021/06/01 17:39:50;;;;;;;12.80;6.00;;;;;;;;;;5114457;28;20058;-77
2021/06/01 17:42:17;;;;;;;9.57;5.95;;;;;;;;;;5113664;28;20024;-79
2021/06/01 17:44:43;;;;;;;10.00;7.28;;;;;;;;;;5113782;28;20024;-79
2021/06/01 17:47:12;;;;;;;6.75;5.65;;;;;;;;;;5113411;28;20024;-79
2021/06/01 17:49:38;;;;;;;21.08;6.85;;;;;;;;;;5114489;28;20485;-84
2021/06/01 17:52:05;;;;;;;17.05;6.28;;;;;;;;;;5114720;28;20020;-77
2021/06/01 17:54:34;;;;;;;9.45;5.20;;;;;;;;;;5113947;28;20024;-76
2021/06/01 17:57:01;;;;;;;9.02;6.00;;;;;;;;;;5113751;28;20024;-76
2021/06/01 17:59:27;;;;;;;7.53;5.85;;;;;;;;;;5114031;28;20034;-76
2021/06/01 18:01:53;;;;;;;10.80;5.78;;;;;;;;;;5114334;28;20023;-80
2021/06/01 18:04:20;;;;;;;8.10;6.15;;;;;;;;;;5113004;28;20503;-76
2021/06/01 18:06:52;;;;;;;10.15;5.30;;;;;;;;;;5113579;28;20024;-76
2021/06/01 18:43:06;;;;;;;9.02;6.50;;;;;;;;;;5102977;28;20058;-77
2021/06/01 19:02:19;;;;;;;9.73;8.07;;;;;;;;;;5096857;28;20042;-80
2021/06/01 19:29:59;;;;;;;14.95;9.98;;;;;;;;;;5095974;28;20086;-76
2021/06/01 19:52:09;;;;;;;15.63;11.18;;;;;;;;;;5095233;28;20032;-76
2021/06/01 19:54:35;;;;;;;16.60;10.73;;;;;;;;;;5096286;28;20028;-76
2021/06/01 19:57:01;;;;;;;19.30;10.73;;;;;;;;;;5095605;28;20020;-73
2021/06/01 19:59:28;;;;;;;16.15;11.77;;;;;;;;;;5095854;28;20111;-77
2021/06/01 20:01:54;;;;;;;16.63;11.32;;;;;;;;;;5096268;28;20028;-75
2021/06/01 20:04:20;;;;;;;15.27;11.77;;;;;;;;;;5093252;28;20111;-75
2021/06/01 20:06:46;;;;;;;20.48;12.10;;;;;;;;;;5094966;28;20063;-75
2021/06/01 20:09:12;;;;;;;13.15;11.30;;;;;;;;;;5095802;28;20103;-75
2021/06/01 20:11:38;;;;;;;12.82;11.52;;;;;;;;;;5095909;28;20028;-75
2021/06/01 20:14:04;;;;;;;17.63;11.90;;;;;;;;;;5095501;28;20028;-75
2021/06/01 20:16:30;;;;;;;13.13;11.02;;;;;;;;;;5095764;28;20028;-75
2021/06/01 20:19:00;;;;;;;19.45;12.82;;;;;;;;;;5095921;28;20079;-73
2021/06/01 20:21:26;;;;;;;19.08;13.10;;;;;;;;;;5096141;28;20036;-73
2021/06/01 20:23:56;;;;;;;17.85;12.18;;;;;;;;;;5095856;28;20389;-75
2021/06/01 20:26:22;;;;;;;15.50;11.82;;;;;;;;;;5115299;28;20131;-75
2021/06/01 20:28:51;;;;;;;16.50;14.13;;;;;;;;;;5116054;28;20019;-78
2021/06/01 20:31:19;;;;;;;26.30;14.63;;;;;;;;;;5116821;28;20483;-75
2021/06/01 20:33:46;;;;;;;22.50;13.68;;;;;;;;;;5116528;28;20027;-77
2021/06/01 20:36:15;;;;;;;22.58;13.40;;;;;;;;;;5115209;28;20414;-75
2021/06/01 20:38:42;;;;;;;16.48;13.48;;;;;;;;;;5118030;28;20023;-78
2021/06/01 20:41:08;;;;;;;21.17;13.95;;;;;;;;;;5117386;28;20039;-77
2021/06/01 20:43:34;;;;;;;18.08;13.05;;;;;;;;;;5117557;28;20389;-78
2021/06/01 20:46:00;;;;;;;23.13;13.32;;;;;;;;;;5117398;28;20023;-77
2021/06/01 20:48:26;;;;;;;18.67;13.30;;;;;;;;;;5114515;28;20039;-80
2021/06/01 20:50:55;;;;;;;23.50;13.07;;;;;;;;;;5114536;28;20051;-80
2021/06/01 20:53:21;;;;;;;17.40;13.38;;;;;;;;;;5113071;28;20357;-81
2021/06/01 20:55:48;;;;;;;16.02;13.23;;;;;;;;;;5094386;28;20453;-80
2021/06/01 20:58:19;;;;;;;15.10;13.57;;;;;;;;;;5094251;28;20047;-82
2021/06/01 21:00:46;;;;;;;16.13;14.13;;;;;;;;;;5094883;28;20035;-81
2021/06/01 21:03:12;;;;;;;16.40;13.93;;;;;;;;;;5094294;28;20035;-82
2021/06/01 21:05:38;;;;;;;18.05;13.35;;;;;;;;;;5094102;28;20085;-82
2021/06/01 21:08:05;;;;;;;20.40;12.90;;;;;;;;;;5094029;28;20483;-80
2021/06/01 21:10:32;;;;;;;21.70;13.80;;;;;;;;;;5094285;28;20058;-81
2021/06/01 21:12:58;;;;;;;25.27;13.00;;;;;;;;;;5094744;28;20488;-81
2021/06/01 21:15:24;;;;;;;19.35;13.20;;;;;;;;;;5094080;28;20039;-85